This is the latest recevied weather packets stored in our database for station/object K8BCO. If no packets are shown the sender has not sent any weather packets the latest 1 day(s).
| Time | Temp. | Humidity | Pressure | Rain* | Wind** | Luminosity | Snow |
|---|---|---|---|---|---|---|---|
| 1778048118 | 2.22° C | 60% | 1009.7 hPa | 0 mm | 1.34 m/s, 342° | 0 W/m² | - |
| 1778047516 | 2.22° C | 60% | 1009.7 hPa | 0 mm | 0.89 m/s, 307° | 0 W/m² | - |
| 1778046918 | 2.22° C | 62% | 1009.7 hPa | 0 mm | 0.89 m/s, 314° | 0 W/m² | - |
| 1778046316 | 2.22° C | 61% | 1009.8 hPa | 0 mm | 0.89 m/s, 313° | 0 W/m² | - |
| 1778045718 | 2.22° C | 62% | 1009.8 hPa | 0 mm | 0.89 m/s, 195° | 0 W/m² | - |
| 1778045115 | 2.22° C | 61% | 1009.8 hPa | 0 mm | 0.89 m/s, 136° | 0 W/m² | - |
| 1778044516 | 2.22° C | 62% | 1009.8 hPa | 0 mm | 0.89 m/s, 236° | 0 W/m² | - |
| 1778043916 | 2.22° C | 61% | 1009.8 hPa | 0 mm | 0.45 m/s, 240° | 0 W/m² | - |
| 1778043316 | 2.22° C | 61% | 1009.8 hPa | 0 mm | 0.45 m/s, 277° | 0 W/m² | - |
| 1778042717 | 2.22° C | 61% | 1009.9 hPa | 0 mm | 1.34 m/s, 265° | 0 W/m² | - |
| 1778042116 | 2.22° C | 60% | 1009.8 hPa | 0 mm | 1.34 m/s, 306° | 0 W/m² | - |
| 1778041517 | 2.22° C | 60% | 1009.7 hPa | 0 mm | 0.45 m/s, 129° | 0 W/m² | - |
| 1778040917 | 2.22° C | 59% | 1009.8 hPa | 0 mm | 1.79 m/s, 299° | 0 W/m² | - |
| 1778040317 | 2.22° C | 59% | 1009.8 hPa | 0 mm | 1.34 m/s, 203° | 0 W/m² | - |
| 1778039717 | 2.22° C | 59% | 1009.9 hPa | 0 mm | 1.79 m/s, 284° | 0 W/m² | - |
| 1778039117 | 2.22° C | 61% | 1009.9 hPa | 0 mm | 1.34 m/s, 206° | 0 W/m² | - |
| 1778038517 | 2.22° C | 60% | 1009.9 hPa | 0 mm | 0.89 m/s, 200° | 0 W/m² | - |
| 1778037917 | 2.22° C | 58% | 1009.9 hPa | 0 mm | 1.34 m/s, 198° | 0 W/m² | - |
| 1778037316 | 2.22° C | 59% | 1010 hPa | 0 mm | 1.34 m/s, 262° | 0 W/m² | - |
| 1778036716 | 2.22° C | 58% | 1009.9 hPa | 0 mm | 1.34 m/s, 171° | 0 W/m² | - |
| 1778036117 | 2.22° C | 58% | 1010 hPa | 0 mm | 0.45 m/s, 201° | 0 W/m² | - |
| 1778035523 | 2.22° C | 58% | 1009.9 hPa | 0 mm | 0.89 m/s, 266° | 0 W/m² | - |
| 1778034917 | 2.22° C | 58% | 1009.9 hPa | 0 mm | 0.89 m/s, 229° | 0 W/m² | - |
| 1778034316 | 2.22° C | 59% | 1009.8 hPa | 0 mm | 0.89 m/s, 289° | 0 W/m² | - |
| 1778033716 | 2.78° C | 57% | 1009.8 hPa | 0 mm | 0.89 m/s, 259° | 0 W/m² | - |
* Rain latest hour (hover to see other rain measurements)
** Current wind speed in m/s (hover to see current wind gust speed)